Time;durP1;ratioP1;P1;durP2;ratioP2;P2;SDS_P1;SDS_P2;PMS_P1;PMS_P2;Temp;Humidity;BMP_temperature;BMP_pressure;BME280_temperature;BME280_humidity;BME280_pressure;Samples;Min_cycle;Max_cycle;Signal;HPM_P1;HPM_P2
2023/05/18 00:01:04;;;;;;;1.00;0.60;;;;;;;21.87;27.32;101705.88;4556138;28;20021;-69
2023/05/18 00:03:14;;;;;;;0.80;0.60;;;;;;;21.88;27.69;101713.31;4556205;28;20033;-69
2023/05/18 00:05:26;;;;;;;1.15;0.60;;;;;;;21.87;27.18;101705.88;4555966;28;20041;-69
2023/05/18 00:07:36;;;;;;;0.60;0.52;;;;;;;21.87;27.62;101705.03;4555301;28;20024;-69
2023/05/18 00:09:47;;;;;;;1.10;0.63;;;;;;;21.85;26.95;101708.25;4554425;28;20024;-70
2023/05/18 00:11:58;;;;;;;1.08;0.70;;;;;;;21.82;27.59;101700.34;4554370;28;20032;-69
2023/05/18 00:14:08;;;;;;;1.45;0.70;;;;;;;21.84;27.23;101709.47;4553920;28;20025;-70
2023/05/18 00:16:19;;;;;;;1.10;0.70;;;;;;;21.84;27.55;101712.34;4555809;28;20076;-70
2023/05/18 00:18:29;;;;;;;1.02;0.70;;;;;;;21.85;27.30;101708.25;4555948;28;20037;-69
2023/05/18 00:20:42;;;;;;;1.17;0.60;;;;;;;21.81;27.34;101703.56;4555229;28;20063;-70
2023/05/18 00:22:52;;;;;;;0.80;0.80;;;;;;;21.84;27.05;101712.34;4545234;28;20143;-70
2023/05/18 00:25:03;;;;;;;0.98;0.60;;;;;;;21.79;27.42;101703.91;4556000;28;20042;-69
2023/05/18 00:27:15;;;;;;;1.05;0.65;;;;;;;21.85;26.96;101716.88;4556224;28;20064;-70
2023/05/18 00:29:25;;;;;;;1.50;0.70;;;;;;;21.82;27.25;101713.84;4555572;28;20733;-69
2023/05/18 00:31:38;;;;;;;1.13;0.70;;;;;;;21.84;27.24;101711.47;4556378;28;20102;-70
2023/05/18 00:33:50;;;;;;;0.77;0.50;;;;;;;21.70;27.07;101690.75;4554040;28;20036;-70
2023/05/18 00:36:01;;;;;;;1.15;0.70;;;;;;;21.83;27.32;101716.41;4552096;28;20687;-70
2023/05/18 00:38:11;;;;;;;1.25;0.70;;;;;;;21.83;27.00;101709.81;4552825;28;20021;-70
2023/05/18 00:40:25;;;;;;;1.00;0.70;;;;;;;21.82;27.38;101713.84;4553821;28;20107;-70
2023/05/18 00:42:35;;;;;;;0.80;0.70;;;;;;;21.81;27.46;101710.16;4537672;28;20095;-70
2023/05/18 00:44:45;;;;;;;0.95;0.70;;;;;;;21.78;27.46;101708.00;4555060;28;20555;-70
2023/05/18 00:46:56;;;;;;;0.60;0.60;;;;;;;21.75;26.95;101691.44;4542883;28;20043;-70
2023/05/18 00:49:07;;;;;;;0.77;0.60;;;;;;;21.78;26.99;101707.13;4554736;28;20028;-70
2023/05/18 00:51:22;;;;;;;0.90;0.70;;;;;;;21.79;26.94;101709.66;4560361;28;20032;-69
2023/05/18 00:53:32;;;;;;;1.15;0.70;;;;;;;21.81;26.85;101713.03;4555576;28;20028;-70
2023/05/18 00:55:43;;;;;;;1.17;0.80;;;;;;;21.81;26.83;101712.19;4553669;28;20033;-69
2023/05/18 00:57:55;;;;;;;0.60;0.60;;;;;;;21.76;26.47;101716.09;4554190;28;20404;-69
2023/05/18 01:00:09;;;;;;;1.27;0.70;;;;;;;21.78;26.56;101718.63;4555011;28;20109;-69
2023/05/18 01:02:21;;;;;;;1.52;0.98;;;;;;;21.80;26.47;101722.81;4559300;28;20466;-69
2023/05/18 01:04:32;;;;;;;0.98;0.80;;;;;;;21.77;26.51;101714.91;4555083;28;20034;-69
2023/05/18 01:06:45;;;;;;;1.80;0.90;;;;;;;21.77;26.58;101729.28;4556621;28;20034;-70
2023/05/18 01:08:56;;;;;;;1.13;0.80;;;;;;;21.77;26.56;101728.47;4555097;28;20033;-69
2023/05/18 01:11:15;;;;;;;0.77;0.77;;;;;;;21.77;26.46;101723.53;4554708;28;20024;-69
2023/05/18 01:13:38;;;;;;;0.80;0.77;;;;;;;21.78;26.73;101718.63;4555351;28;20048;-69
2023/05/18 01:15:53;;;;;;;0.85;0.60;;;;;;;21.75;26.76;101717.31;4545802;28;20144;-69
2023/05/18 01:18:09;;;;;;;1.27;0.80;;;;;;;21.78;26.72;101730.13;4552065;28;20614;-70
2023/05/18 01:20:36;;;;;;;1.27;0.80;;;;;;;21.76;27.05;101723.88;4555210;28;20040;-69
2023/05/18 01:23:05;;;;;;;1.42;0.77;;;;;;;21.76;26.66;101724.72;4553326;28;20032;-69
2023/05/18 01:25:54;;;;;;;1.35;0.75;;;;;;;21.75;26.85;101722.19;4555935;28;20303;-70
2023/05/18 01:28:08;;;;;;;1.63;0.90;;;;;;;21.76;26.93;101726.75;4500571;28;20038;-69
2023/05/18 01:30:19;;;;;;;1.08;0.70;;;;;;;21.73;26.74;101722.53;4502440;28;20034;-70
2023/05/18 01:32:39;;;;;;;1.08;0.85;;;;;;;21.74;26.85;101724.19;4521887;28;21003;-70
2023/05/18 01:34:49;;;;;;;1.67;1.00;;;;;;;21.72;26.77;101720.81;4556453;28;20140;-70
2023/05/18 01:37:00;;;;;;;0.85;0.68;;;;;;;21.72;26.75;101717.94;4554198;28;20025;-69
2023/05/18 01:39:11;;;;;;;1.20;0.80;;;;;;;21.72;26.81;101720.00;4553879;28;20036;-70
2023/05/18 01:41:25;;;;;;;1.27;0.82;;;;;;;21.72;27.05;101720.81;4552314;28;20040;-71
2023/05/18 01:43:41;;;;;;;0.98;0.77;;;;;;;21.70;27.05;101714.59;4553498;28;20678;-69
2023/05/18 01:45:56;;;;;;;0.82;0.70;;;;;;;21.71;26.59;101718.28;4551937;28;20107;-70
2023/05/18 01:48:09;;;;;;;1.60;0.90;;;;;;;21.70;27.14;101719.50;4553119;28;20024;-69
2023/05/18 01:50:36;;;;;;;0.93;0.80;;;;;;;21.72;26.71;101720.81;4554184;28;20032;-70
2023/05/18 01:52:53;;;;;;;1.40;0.90;;;;;;;21.71;26.96;101715.41;4553805;28;20669;-70
2023/05/18 01:55:05;;;;;;;0.77;0.75;;;;;;;21.72;26.96;101720.00;4552922;28;20039;-69
2023/05/18 01:57:20;;;;;;;0.90;0.70;;;;;;;21.71;26.87;101712.56;4541379;28;20099;-69
2023/05/18 01:59:31;;;;;;;0.70;0.70;;;;;;;21.70;27.02;101719.50;4551522;28;20139;-70
2023/05/18 02:01:42;;;;;;;1.10;0.73;;;;;;;21.67;26.89;101712.44;4553421;28;20045;-70
2023/05/18 02:03:52;;;;;;;0.80;0.80;;;;;;;21.68;26.81;101716.13;4553090;28;20059;-70
2023/05/18 02:06:02;;;;;;;1.20;0.80;;;;;;;21.64;26.56;101707.38;4553804;28;20032;-69
2023/05/18 02:08:13;;;;;;;1.42;1.00;;;;;;;21.67;26.58;101715.31;4568738;27;20318;-70
2023/05/18 02:10:23;;;;;;;1.42;1.00;;;;;;;21.69;26.92;101714.94;4553533;28;20059;-69
2023/05/18 02:12:34;;;;;;;1.00;0.80;;;;;;;21.64;26.63;101713.13;4568056;27;20102;-69
2023/05/18 02:14:45;;;;;;;1.35;0.80;;;;;;;21.65;26.69;101714.81;4552590;28;20036;-70
2023/05/18 02:16:56;;;;;;;1.15;0.82;;;;;;;21.68;26.47;101719.00;4554279;28;20043;-70
2023/05/18 02:19:07;;;;;;;1.08;0.90;;;;;;;21.65;26.84;101714.81;4553832;28;20563;-70
2023/05/18 02:21:17;;;;;;;1.10;0.90;;;;;;;21.64;27.05;101704.50;4553762;28;20091;-69
2023/05/18 02:23:28;;;;;;;0.85;0.80;;;;;;;21.65;26.82;101717.69;4552629;28;20546;-69
2023/05/18 02:25:38;;;;;;;1.65;0.93;;;;;;;21.64;26.55;101718.88;4553584;28;20043;-70
2023/05/18 02:27:49;;;;;;;1.08;0.88;;;;;;;21.61;26.72;101710.09;4553112;28;20043;-70
2023/05/18 02:30:02;;;;;;;0.80;0.60;;;;;;;21.63;26.70;101711.41;4555574;28;20603;-69
2023/05/18 02:32:13;;;;;;;0.90;0.80;;;;;;;21.63;26.25;101717.16;4551603;28;20636;-70
2023/05/18 02:34:23;;;;;;;1.05;0.80;;;;;;;21.64;26.24;101721.75;4552639;28;20024;-70
2023/05/18 02:36:38;;;;;;;1.27;0.90;;;;;;;21.60;26.18;101717.88;4554351;28;20559;-69
2023/05/18 02:38:49;;;;;;;1.00;0.80;;;;;;;21.64;26.13;101715.16;4554916;28;20543;-69
2023/05/18 02:41:00;;;;;;;0.70;0.70;;;;;;;21.60;25.97;101711.28;4553225;28;20029;-69
2023/05/18 02:43:10;;;;;;;1.02;0.77;;;;;;;21.62;26.16;101727.00;4540998;28;20032;-69
2023/05/18 02:45:21;;;;;;;0.77;0.70;;;;;;;21.59;26.40;101721.94;4552329;28;20900;-70
2023/05/18 02:47:32;;;;;;;0.88;0.77;;;;;;;21.60;26.41;101726.50;4553196;28;20020;-69
2023/05/18 02:49:42;;;;;;;0.80;0.70;;;;;;;21.61;26.20;101733.91;4566322;27;20040;-69
2023/05/18 02:51:53;;;;;;;0.70;0.70;;;;;;;21.58;26.38;101731.72;4538567;28;20103;-70
2023/05/18 02:54:03;;;;;;;1.65;0.90;;;;;;;21.60;25.97;101728.50;4552481;28;20048;-70
2023/05/18 02:56:19;;;;;;;1.00;0.80;;;;;;;21.58;26.29;101725.16;4551021;28;20922;-70
2023/05/18 02:58:46;;;;;;;0.95;0.80;;;;;;;21.40;26.17;101689.09;4550504;28;20037;-71
2023/05/18 03:01:06;;;;;;;0.85;0.80;;;;;;;21.55;25.81;101723.81;4552147;28;20139;-70
2023/05/18 03:03:22;;;;;;;1.35;0.93;;;;;;;21.59;25.76;101730.56;4551579;28;20020;-71
2023/05/18 03:05:33;;;;;;;1.10;0.80;;;;;;;21.55;26.06;101726.69;4550795;28;20029;-70
2023/05/18 03:07:49;;;;;;;0.90;0.70;;;;;;;21.57;25.77;101735.81;4539126;28;20077;-72
2023/05/18 03:10:02;;;;;;;1.35;0.70;;;;;;;21.57;25.76;101729.22;4554606;28;20029;-70
2023/05/18 03:12:13;;;;;;;0.70;0.70;;;;;;;21.56;25.78;101728.38;4552173;28;21139;-70
2023/05/18 03:14:24;;;;;;;0.70;0.70;;;;;;;21.58;25.57;101736.66;4552212;28;20032;-71
2023/05/18 03:16:37;;;;;;;1.75;0.85;;;;;;;21.51;25.60;101725.72;4553102;28;20122;-70
2023/05/18 03:18:48;;;;;;;1.17;0.82;;;;;;;21.56;26.00;101727.53;4558493;28;20032;-70
2023/05/18 03:21:00;;;;;;;1.60;0.90;;;;;;;21.53;25.71;101731.09;4552002;28;20060;-70
2023/05/18 03:23:11;;;;;;;1.27;0.80;;;;;;;21.55;25.91;101740.22;4552563;28;20040;-71
2023/05/18 03:25:24;;;;;;;1.30;0.90;;;;;;;21.53;25.85;101731.91;4556188;28;20836;-70
2023/05/18 03:27:36;;;;;;;1.20;0.80;;;;;;;21.54;25.82;101736.50;4554660;28;20063;-70
2023/05/18 03:29:47;;;;;;;0.88;0.85;;;;;;;21.55;25.32;101741.03;4555403;28;20028;-71
2023/05/18 03:31:57;;;;;;;1.95;0.80;;;;;;;21.54;25.37;101738.53;4544970;28;20443;-70
2023/05/18 03:34:08;;;;;;;1.52;0.90;;;;;;;21.55;25.31;101743.91;4571263;27;20051;-70
2023/05/18 03:36:21;;;;;;;1.00;0.90;;;;;;;21.49;25.64;101741.59;4554452;28;20658;-70
2023/05/18 03:38:31;;;;;;;0.80;0.73;;;;;;;21.54;25.74;101744.25;4555658;28;20143;-70
2023/05/18 03:40:47;;;;;;;1.37;0.80;;;;;;;21.49;25.41;101748.19;4555213;28;21265;-69
2023/05/18 03:42:58;;;;;;;0.73;0.70;;;;;;;21.50;25.61;101746.97;4554714;28;20337;-70
2023/05/18 03:45:10;;;;;;;1.20;0.80;;;;;;;21.52;25.94;101750.34;4555199;28;20024;-70
2023/05/18 03:47:21;;;;;;;1.40;0.63;;;;;;;21.50;25.98;101746.97;4554808;28;20032;-70
2023/05/18 03:49:33;;;;;;;0.93;0.80;;;;;;;21.52;25.87;101744.63;4555865;28;20056;-69
2023/05/18 03:51:43;;;;;;;1.20;0.80;;;;;;;21.49;25.71;101745.31;4552711;28;20195;-70
2023/05/18 03:53:54;;;;;;;1.05;0.85;;;;;;;21.49;25.76;101750.19;4554014;28;20047;-70
2023/05/18 03:56:05;;;;;;;0.70;0.70;;;;;;;21.49;25.83;101751.06;4555967;28;20060;-69
2023/05/18 03:58:16;;;;;;;0.80;0.80;;;;;;;21.47;25.80;101755.47;4554335;28;20041;-69
2023/05/18 04:00:26;;;;;;;1.33;0.90;;;;;;;21.49;26.01;101755.94;4555328;28;20143;-70
2023/05/18 04:02:37;;;;;;;0.93;0.80;;;;;;;21.49;26.25;101750.19;4554637;28;20485;-70
2023/05/18 04:04:47;;;;;;;0.90;0.80;;;;;;;21.49;26.48;101753.94;4553130;28;20523;-69
2023/05/18 04:07:01;;;;;;;0.70;0.70;;;;;;;21.47;26.15;101750.53;4555769;28;20415;-69
2023/05/18 04:09:16;;;;;;;0.82;0.70;;;;;;;21.46;26.43;101751.75;4553760;28;20019;-70
2023/05/18 04:11:26;;;;;;;0.85;0.70;;;;;;;21.44;26.65;101748.38;4555256;28;20610;-69
2023/05/18 04:13:37;;;;;;;0.70;0.70;;;;;;;21.48;26.79;101749.38;4556149;28;20075;-69
2023/05/18 04:15:47;;;;;;;1.10;0.98;;;;;;;21.46;26.84;101748.88;4555859;28;20522;-69
2023/05/18 04:17:58;;;;;;;0.90;0.80;;;;;;;21.48;26.79;101749.38;4553969;28;20054;-69
2023/05/18 04:20:12;;;;;;;1.00;0.80;;;;;;;21.46;27.24;101745.16;4542508;28;20028;-69
2023/05/18 04:22:23;;;;;;;1.50;0.90;;;;;;;21.46;27.42;101748.03;4542017;28;20043;-69
2023/05/18 04:24:34;;;;;;;1.05;0.80;;;;;;;21.47;27.30;101756.28;4554726;28;20023;-69
2023/05/18 04:26:45;;;;;;;0.82;0.70;;;;;;;21.46;27.81;101750.91;4569515;27;20032;-69
2023/05/18 04:28:58;;;;;;;1.23;0.80;;;;;;;21.45;27.58;101754.97;4551727;28;20040;-69
2023/05/18 04:31:13;;;;;;;1.17;0.88;;;;;;;21.43;27.49;101745.84;4541790;28;20576;-69
2023/05/18 04:33:23;;;;;;;1.05;0.85;;;;;;;21.46;27.32;101751.75;4551988;27;20670;-69
2023/05/18 04:35:34;;;;;;;1.10;1.00;;;;;;;21.37;27.69;101744.38;4555320;28;20382;-69
2023/05/18 04:37:45;;;;;;;1.50;0.90;;;;;;;21.45;28.01;101754.97;4553749;28;20063;-69
2023/05/18 04:40:01;;;;;;;0.75;0.70;;;;;;;21.46;27.67;101750.91;4554965;28;20080;-69
2023/05/18 04:42:16;;;;;;;0.95;0.73;;;;;;;21.43;28.08;101755.31;4554520;28;20021;-69
2023/05/18 04:44:28;;;;;;;1.23;0.80;;;;;;;21.42;28.32;101756.47;4554296;28;20139;-69
2023/05/18 04:46:40;;;;;;;1.50;0.93;;;;;;;21.41;28.90;101754.81;4554732;28;20033;-69
2023/05/18 04:48:56;;;;;;;1.00;0.80;;;;;;;21.44;28.91;101767.63;4551594;28;20183;-70
2023/05/18 04:51:07;;;;;;;1.63;0.93;;;;;;;21.44;29.17;101765.59;4554569;28;20034;-70
2023/05/18 04:53:17;;;;;;;1.48;0.95;;;;;;;21.44;29.12;101759.00;4553786;28;20621;-70
2023/05/18 04:55:29;;;;;;;0.93;0.88;;;;;;;21.44;29.41;101754.13;4554627;28;20040;-69
2023/05/18 04:57:49;;;;;;;2.00;0.85;;;;;;;21.42;29.36;101759.34;4554837;28;20135;-70
2023/05/18 04:59:59;;;;;;;1.00;0.90;;;;;;;21.38;29.42;101752.63;4553456;28;20571;-69
2023/05/18 05:02:10;;;;;;;1.00;0.90;;;;;;;21.42;29.52;101755.66;4554162;28;20032;-70
2023/05/18 05:04:21;;;;;;;1.70;0.88;;;;;;;21.41;29.14;101759.69;4542048;28;20041;-70
2023/05/18 05:06:31;;;;;;;1.13;0.90;;;;;;;21.41;29.20;101760.56;4554346;28;20471;-70
2023/05/18 05:08:41;;;;;;;0.95;0.90;;;;;;;21.37;29.88;101759.56;4552260;28;20484;-69
2023/05/18 05:10:52;;;;;;;1.05;0.90;;;;;;;21.41;29.73;101760.56;4554834;28;20041;-70
2023/05/18 05:13:03;;;;;;;0.90;0.80;;;;;;;21.41;29.65;101760.56;4555391;28;20638;-69
2023/05/18 05:15:13;;;;;;;2.05;1.08;;;;;;;21.36;28.98;101749.25;4555859;28;20634;-70
2023/05/18 05:17:24;;;;;;;0.98;0.80;;;;;;;21.38;28.98;101748.91;4554329;28;20115;-70
2023/05/18 05:19:35;;;;;;;1.10;0.80;;;;;;;21.42;29.53;101756.47;4553153;28;20112;-69
2023/05/18 05:21:45;;;;;;;1.42;0.98;;;;;;;21.38;29.55;101752.63;4543240;28;20025;-69
2023/05/18 05:23:56;;;;;;;1.20;0.80;;;;;;;21.39;29.83;101754.31;4543509;28;20032;-69
2023/05/18 05:26:08;;;;;;;1.30;0.80;;;;;;;21.41;28.90;101762.56;4554627;28;20028;-69
2023/05/18 05:28:19;;;;;;;0.98;0.75;;;;;;;21.39;28.85;101762.91;4541696;28;20545;-69
2023/05/18 05:30:31;;;;;;;1.10;0.70;;;;;;;21.38;28.89;101761.25;4553054;28;20405;-69
2023/05/18 05:32:41;;;;;;;1.33;0.90;;;;;;;21.36;29.06;101766.47;4553635;28;20127;-69
2023/05/18 05:34:52;;;;;;;1.05;0.70;;;;;;;21.39;29.58;101762.09;4553437;28;20282;-69
2023/05/18 05:37:04;;;;;;;1.83;1.02;;;;;;;21.37;29.71;101770.22;4552722;28;20090;-69
2023/05/18 05:39:15;;;;;;;0.93;0.70;;;;;;;21.39;29.39;101773.59;4542252;28;20032;-69
2023/05/18 05:41:26;;;;;;;0.90;0.80;;;;;;;21.38;29.44;101772.75;4555333;27;20087;-69
2023/05/18 05:43:36;;;;;;;1.15;0.70;;;;;;;21.36;29.09;101768.53;4536003;28;20084;-69
2023/05/18 05:45:46;;;;;;;0.93;0.60;;;;;;;21.35;29.13;101769.69;4554424;28;20030;-68
2023/05/18 05:47:57;;;;;;;2.20;0.90;;;;;;;21.38;29.21;101771.88;4570004;27;20037;-68
2023/05/18 05:50:08;;;;;;;0.70;0.70;;;;;;;21.33;29.69;101775.78;4551444;28;20033;-69
2023/05/18 05:52:20;;;;;;;0.80;0.80;;;;;;;21.35;29.26;101779.16;4554532;28;20142;-69
2023/05/18 05:54:31;;;;;;;1.25;0.80;;;;;;;21.36;29.16;101777.16;4569535;27;20386;-69
2023/05/18 05:56:42;;;;;;;1.15;0.73;;;;;;;21.34;30.17;101771.75;4553708;28;20032;-69
2023/05/18 05:58:53;;;;;;;1.08;0.70;;;;;;;21.35;29.85;101779.16;4552783;28;20565;-69
2023/05/18 06:01:04;;;;;;;1.45;0.90;;;;;;;21.36;29.97;101777.97;4554023;28;20047;-68
2023/05/18 06:03:14;;;;;;;1.05;0.90;;;;;;;21.36;30.12;101772.22;4542108;28;20068;-69
2023/05/18 06:05:28;;;;;;;1.23;0.75;;;;;;;21.35;30.25;101778.31;4552461;28;20035;-69
2023/05/18 06:07:38;;;;;;;1.17;0.80;;;;;;;21.36;29.83;101777.16;4553379;28;20171;-68
2023/05/18 06:09:49;;;;;;;1.35;0.90;;;;;;;21.34;29.96;101780.38;4551888;28;20028;-69
2023/05/18 06:11:59;;;;;;;1.40;0.90;;;;;;;21.34;30.03;101783.25;4570011;27;20357;-68
2023/05/18 06:14:11;;;;;;;1.33;0.68;;;;;;;21.36;34.04;101783.72;4552842;28;20036;-68
2023/05/18 06:16:22;;;;;;;1.00;0.60;;;;;;;21.32;35.65;101776.13;4554673;28;20086;-68
2023/05/18 06:18:33;;;;;;;0.95;0.63;;;;;;;21.35;36.72;101779.16;4553126;28;20445;-68
2023/05/18 06:20:47;;;;;;;1.02;0.70;;;;;;;21.32;35.43;101779.88;4550985;28;20115;-69
2023/05/18 06:22:58;;;;;;;1.23;0.70;;;;;;;21.34;35.23;101788.13;4553386;28;20024;-69
2023/05/18 06:25:48;;;;;;;;;;;;;;;21.35;32.50;101795.56;4516177;28;20124;-69
2023/05/18 06:28:13;;;;;;;1.33;0.60;;;;;;;21.36;35.55;101803.81;4523754;28;19924;-68
2023/05/18 06:30:30;;;;;;;0.70;0.50;;;;;;;21.33;35.63;101798.78;4553107;28;20763;-68
2023/05/18 06:32:56;;;;;;;0.65;0.60;;;;;;;21.34;35.12;101797.59;4553509;28;21244;-68
2023/05/18 06:35:06;;;;;;;1.45;0.80;;;;;;;21.33;34.21;101798.78;4552784;28;20036;-68
2023/05/18 06:37:18;;;;;;;0.60;0.60;;;;;;;21.35;34.05;101796.41;4554123;28;20124;-69
2023/05/18 06:39:28;;;;;;;1.55;0.70;;;;;;;21.34;34.59;101794.72;4541676;28;20111;-69
2023/05/18 06:41:39;;;;;;;1.20;0.68;;;;;;;21.32;32.30;101794.22;4553293;28;20182;-68
2023/05/18 06:43:50;;;;;;;0.70;0.60;;;;;;;21.34;33.26;101796.75;4540333;28;20037;-69
2023/05/18 06:46:02;;;;;;;2.58;1.00;;;;;;;21.32;30.95;101799.97;4552094;28;20028;-68
2023/05/18 06:48:17;;;;;;;0.80;0.60;;;;;;;21.34;33.23;101806.22;4552328;28;20148;-68
2023/05/18 06:50:28;;;;;;;0.70;0.60;;;;;;;21.33;33.55;101801.63;4553758;28;20040;-68
2023/05/18 06:52:39;;;;;;;0.93;0.80;;;;;;;21.32;34.36;101799.97;4535742;28;20033;-69
2023/05/18 06:54:49;;;;;;;0.73;0.63;;;;;;;21.35;32.73;101807.03;4554437;28;20591;-69
2023/05/18 06:57:00;;;;;;;1.23;0.70;;;;;;;21.32;33.81;101814.31;4552701;27;20036;-68
2023/05/18 06:59:11;;;;;;;0.82;0.60;;;;;;;21.33;33.43;101803.66;4551553;28;20043;-69
2023/05/18 07:01:22;;;;;;;1.55;0.80;;;;;;;21.34;31.72;101817.69;4554913;28;20032;-68
2023/05/18 07:03:33;;;;;;;1.27;0.80;;;;;;;21.33;31.81;101816.00;4550904;28;20028;-68
2023/05/18 07:05:43;;;;;;;0.98;0.60;;;;;;;21.31;32.75;101812.63;4553443;28;20120;-69
2023/05/18 07:07:54;;;;;;;0.90;0.50;;;;;;;21.35;33.28;101819.38;4554612;28;20531;-68
2023/05/18 07:10:05;;;;;;;1.58;0.63;;;;;;;21.32;32.07;101814.31;4553475;28;20067;-69
2023/05/18 07:12:16;;;;;;;0.85;0.60;;;;;;;21.34;31.65;101817.69;4553221;28;21180;-68
2023/05/18 07:14:26;;;;;;;0.63;0.63;;;;;;;21.34;32.57;101816.84;4535448;28;20445;-68
2023/05/18 07:16:36;;;;;;;0.73;0.50;;;;;;;21.33;33.19;101803.66;4551989;28;20136;-69
2023/05/18 07:18:47;;;;;;;0.80;0.60;;;;;;;21.28;33.20;101798.94;4551766;28;20090;-69
2023/05/18 07:20:57;;;;;;;1.15;0.60;;;;;;;21.35;32.03;101809.91;4553991;28;20111;-68
2023/05/18 07:23:08;;;;;;;1.23;0.70;;;;;;;21.32;32.77;101802.84;4552479;28;20137;-70
2023/05/18 07:25:18;;;;;;;0.98;0.65;;;;;;;21.31;32.54;101806.88;4552937;28;20021;-69
2023/05/18 07:27:28;;;;;;;1.48;0.73;;;;;;;21.33;31.00;101800.78;4552466;28;20032;-69
2023/05/18 07:29:39;;;;;;;1.35;0.80;;;;;;;21.33;30.96;101801.63;4553051;28;20208;-69
2023/05/18 07:31:49;;;;;;;1.20;0.70;;;;;;;21.35;32.18;101807.03;4553374;28;20044;-69
2023/05/18 07:34:00;;;;;;;1.98;0.80;;;;;;;21.33;31.05;101812.28;4553344;28;20036;-69
2023/05/18 07:36:10;;;;;;;1.75;0.88;;;;;;;21.34;30.48;101806.22;4552571;28;20041;-69
2023/05/18 07:38:21;;;;;;;0.85;0.85;;;;;;;21.35;30.92;101813.63;4552574;28;20024;-69
2023/05/18 07:40:31;;;;;;;1.27;0.70;;;;;;;21.32;31.72;101805.72;4552827;27;20059;-68
2023/05/18 07:42:42;;;;;;;0.90;0.60;;;;;;;21.34;31.26;101800.47;4535053;28;20144;-69
2023/05/18 07:44:53;;;;;;;1.20;0.80;;;;;;;21.32;31.86;101802.84;4552525;28;20037;-70
2023/05/18 07:47:03;;;;;;;1.92;1.02;;;;;;;21.35;30.86;101805.03;4551860;28;20037;-70
2023/05/18 07:49:14;;;;;;;2.65;1.23;;;;;;;21.32;31.24;101801.97;4553513;28;20032;-69
2023/05/18 07:51:24;;;;;;;5.35;2.35;;;;;;;21.34;32.14;101803.34;4552223;28;20040;-70
2023/05/18 07:53:36;;;;;;;4.60;1.85;;;;;;;21.33;32.25;101795.03;4553258;28;20072;-69
2023/05/18 07:55:48;;;;;;;2.67;1.20;;;;;;;21.32;32.65;101797.09;4552975;28;20111;-70
2023/05/18 07:57:59;;;;;;;3.10;1.55;;;;;;;21.33;32.42;101798.78;4552903;28;20039;-70
2023/05/18 08:00:11;;;;;;;3.90;1.38;;;;;;;21.34;33.97;101800.47;4552099;28;20151;-69
2023/05/18 08:02:24;;;;;;;3.53;1.48;;;;;;;21.33;33.66;101798.78;4553523;28;20113;-69
2023/05/18 08:04:34;;;;;;;1.73;0.93;;;;;;;21.32;33.55;101797.09;4552809;28;20063;-69
2023/05/18 08:06:45;;;;;;;2.58;1.30;;;;;;;21.33;34.22;101793.03;4550526;28;20524;-69
2023/05/18 08:08:57;;;;;;;2.28;1.20;;;;;;;21.31;33.50;101789.66;4553149;28;20036;-68
2023/05/18 08:11:08;;;;;;;2.25;0.88;;;;;;;21.34;33.45;101796.75;4553492;28;20064;-64
2023/05/18 08:13:18;;;;;;;1.63;0.80;;;;;;;21.35;32.11;101796.41;4555999;28;20143;-64
2023/05/18 08:15:29;;;;;;;2.28;0.88;;;;;;;21.23;32.77;101770.41;4554563;28;20735;-64
2023/05/18 08:17:39;;;;;;;1.58;0.80;;;;;;;21.33;31.85;101784.41;4551947;28;20035;-64
2023/05/18 08:19:52;;;;;;;1.30;0.82;;;;;;;21.36;31.54;101788.63;4556401;28;20036;-64
2023/05/18 08:22:03;;;;;;;1.80;0.80;;;;;;;21.33;32.30;101778.66;4555010;28;20036;-64
2023/05/18 08:24:13;;;;;;;1.20;0.70;;;;;;;21.35;31.09;101782.03;4553921;28;20040;-64
2023/05/18 08:26:25;;;;;;;1.42;0.70;;;;;;;21.37;30.59;101793.19;4554425;28;20037;-64
2023/05/18 08:28:36;;;;;;;1.05;0.70;;;;;;;21.35;29.72;101781.19;4554149;28;20041;-64
2023/05/18 08:30:46;;;;;;;0.88;0.60;;;;;;;21.35;29.62;101773.44;4554792;28;20032;-64
2023/05/18 08:32:57;;;;;;;0.88;0.65;;;;;;;21.39;29.81;101773.59;4554126;28;20488;-64
2023/05/18 08:35:08;;;;;;;0.95;0.63;;;;;;;21.33;29.67;101760.59;4555750;28;20093;-65
2023/05/18 08:37:20;;;;;;;1.60;0.85;;;;;;;21.36;29.79;101772.22;4554793;27;20045;-64
2023/05/18 08:39:31;;;;;;;1.48;0.70;;;;;;;21.37;29.28;101765.31;4554637;28;20020;-65
2023/05/18 08:41:54;;;;;;;1.08;0.60;;;;;;;21.40;29.72;101769.50;4553671;28;20780;-65
2023/05/18 08:44:10;;;;;;;1.10;0.70;;;;;;;21.38;30.37;101767.00;4555177;28;21066;-65
2023/05/18 08:46:28;;;;;;;1.20;0.60;;;;;;;21.38;30.13;101769.88;4553465;28;20044;-65
2023/05/18 08:48:41;;;;;;;1.50;0.60;;;;;;;21.37;30.71;101761.59;4553777;28;20306;-65
2023/05/18 08:50:56;;;;;;;1.25;0.70;;;;;;;21.38;30.32;101761.25;4554634;28;20690;-65
2023/05/18 08:53:09;;;;;;;1.00;0.70;;;;;;;21.39;30.37;101768.66;4555749;28;20075;-65
2023/05/18 08:55:21;;;;;;;0.90;0.60;;;;;;;21.36;30.18;101757.06;4554850;28;20143;-65
2023/05/18 08:57:36;;;;;;;1.35;0.70;;;;;;;21.38;30.47;101763.25;4555403;28;20044;-64
2023/05/18 08:59:48;;;;;;;1.23;0.70;;;;;;;21.36;30.06;101766.47;4554054;28;20174;-65
2023/05/18 09:01:58;;;;;;;1.48;0.60;;;;;;;21.34;29.83;101759.41;4554261;28;20028;-65
2023/05/18 09:04:11;;;;;;;1.40;0.70;;;;;;;21.41;29.50;101765.44;4553016;28;20557;-64
2023/05/18 09:06:27;;;;;;;1.00;0.90;;;;;;;21.40;29.66;101764.63;4554550;27;20029;-64
2023/05/18 09:08:37;;;;;;;1.30;0.60;;;;;;;21.42;29.49;101755.66;4553941;28;20044;-65
2023/05/18 09:10:50;;;;;;;1.13;0.63;;;;;;;21.40;29.41;101753.13;4554421;28;20028;-65
2023/05/18 09:13:04;;;;;;;1.30;0.60;;;;;;;21.35;29.98;101738.09;4551936;28;20110;-65
2023/05/18 09:15:16;;;;;;;1.30;0.68;;;;;;;21.41;29.87;101751.94;4554905;28;20031;-64
2023/05/18 09:17:27;;;;;;;1.02;0.70;;;;;;;21.40;30.28;101752.28;4553172;28;20039;-65
2023/05/18 09:19:37;;;;;;;2.30;0.80;;;;;;;21.39;29.79;101744.88;4553489;28;20047;-65
2023/05/18 09:21:47;;;;;;;1.00;0.70;;;;;;;21.41;30.59;101746.19;4554696;28;20064;-65
2023/05/18 09:23:59;;;;;;;1.15;0.70;;;;;;;21.43;30.04;101743.81;4554272;28;20627;-65
2023/05/18 09:26:11;;;;;;;1.50;0.73;;;;;;;21.42;30.29;101745.00;4554995;28;20582;-65
2023/05/18 09:28:41;;;;;;;1.73;0.73;;;;;;;21.40;29.46;101730.16;4553663;28;20114;-65
2023/05/18 09:30:52;;;;;;;0.98;0.68;;;;;;;21.42;30.65;101736.38;4552938;28;20033;-65
2023/05/18 09:33:04;;;;;;;1.08;0.70;;;;;;;21.39;30.81;101725.59;4554580;28;20815;-65
2023/05/18 09:35:14;;;;;;;1.42;0.75;;;;;;;21.39;30.58;101725.59;4552906;28;20101;-65
2023/05/18 09:37:26;;;;;;;2.42;0.98;;;;;;;21.44;30.66;101731.13;4552400;28;20039;-64
2023/05/18 09:39:36;;;;;;;1.08;0.80;;;;;;;21.43;30.10;101740.94;4540131;28;20989;-65
2023/05/18 09:41:55;;;;;;;1.08;0.60;;;;;;;21.44;30.61;101736.88;4552729;28;20393;-65
2023/05/18 09:44:11;;;;;;;1.02;0.70;;;;;;;21.43;30.60;101737.22;4556067;28;20036;-64
2023/05/18 09:46:21;;;;;;;1.17;0.80;;;;;;;21.41;30.78;101726.09;4554802;28;20618;-64
2023/05/18 09:48:35;;;;;;;1.35;0.80;;;;;;;21.43;29.66;101737.22;4553586;28;20038;-65
2023/05/18 09:50:45;;;;;;;1.73;0.90;;;;;;;21.45;29.87;101740.59;4554143;28;20107;-64
2023/05/18 09:52:56;;;;;;;1.85;0.70;;;;;;;21.44;29.95;101742.63;4553798;28;20123;-65
2023/05/18 09:55:07;;;;;;;1.02;0.70;;;;;;;21.47;29.41;101743.97;4553291;28;20553;-65
2023/05/18 09:57:20;;;;;;;1.33;0.70;;;;;;;21.45;30.04;101741.47;4553486;28;20416;-65
2023/05/18 09:59:33;;;;;;;0.98;0.68;;;;;;;21.48;29.80;101737.91;4553268;28;20028;-64
2023/05/18 10:02:01;;;;;;;1.08;0.70;;;;;;;21.47;30.10;101732.50;4553761;28;20048;-65
2023/05/18 10:04:12;;;;;;;1.42;0.80;;;;;;;21.50;30.37;101734.66;4552102;28;20587;-64
2023/05/18 10:06:26;;;;;;;1.42;0.80;;;;;;;21.47;29.71;101729.63;4552941;28;20045;-63
2023/05/18 10:08:37;;;;;;;0.85;0.70;;;;;;;21.49;29.48;101730.94;4551658;28;20131;-64
2023/05/18 10:10:48;;;;;;;1.63;0.70;;;;;;;21.53;30.20;101734.78;4552521;28;20041;-64
2023/05/18 10:13:00;;;;;;;0.95;0.60;;;;;;;21.48;30.46;101726.41;4554750;28;20127;-63
2023/05/18 10:15:15;;;;;;;1.65;0.70;;;;;;;21.50;29.76;101724.00;4552176;28;20071;-65